Sint-Amands, Belgium
Current Conditions -  °F | °C
As of 9:20 PM on Wednesday 26 Nov 2014 (Local Time) from EBAW Reporting Station
Haze Haze  
Wind Chill: 45°   Ceiling: 300
Heat Index: 45°   Visibility: 1.3mi
Dew Point: 43°   Wind: 3mph
Humidity: 93%   Direction: 110°ESE
Pressure: 29.83"   Gusts: NA
Location:  51.06°N, 4.21°E
Report Text: EBAW 262020Z 11003KT 2100 BR BKN003 07/06 Q1010 NOSIG
Loading
Personal Weather Stations






























Interactive Weather Map New forecast layout! Learn more

10-Day Weather Forecast

Advertisements
Track Severe Weather on mobile